createdAt,value
2024-05-09T00:00:55.285Z,98755.59
2024-05-09T00:03:26.158Z,98745.19
2024-05-09T00:05:57.084Z,98740.00
2024-05-09T00:08:28.308Z,98734.31
2024-05-09T00:10:59.306Z,98739.13
2024-05-09T00:13:32.952Z,98743.13
2024-05-09T00:16:03.833Z,98737.91
2024-05-09T00:18:34.769Z,98725.47
2024-05-09T00:21:08.359Z,98727.09
2024-05-09T00:23:39.348Z,98729.94
2024-05-09T00:26:10.238Z,98729.94
2024-05-09T00:28:43.696Z,98731.56
2024-05-09T00:31:14.559Z,98730.38
2024-05-09T00:33:45.480Z,98726.78
2024-05-09T00:36:16.414Z,98727.19
2024-05-09T00:38:47.613Z,98724.00
2024-05-09T00:41:19.873Z,98719.19
2024-05-09T00:43:53.630Z,98725.63
2024-05-09T00:46:24.630Z,98721.22
2024-05-09T00:48:55.669Z,98718.41
2024-05-09T00:51:26.624Z,98724.84
2024-05-09T00:53:57.969Z,98722.44
2024-05-09T00:56:29.401Z,98725.66
2024-05-09T00:59:03.806Z,98718.03
2024-05-09T01:01:34.928Z,98722.47
2024-05-09T01:04:05.927Z,98715.22
2024-05-09T01:06:36.942Z,98712.81
2024-05-09T01:09:07.803Z,98721.22
2024-05-09T01:11:40.837Z,98724.44
2024-05-09T01:14:14.375Z,98711.97
2024-05-09T01:16:45.600Z,98715.09
2024-05-09T01:19:26.348Z,98710.28
2024-05-09T01:21:57.556Z,98707.41
2024-05-09T01:24:30.975Z,98712.63
2024-05-09T01:27:01.901Z,98707.00
2024-05-09T01:29:32.713Z,98713.50
2024-05-09T01:32:04.993Z,98711.53
2024-05-09T01:34:35.884Z,98715.16
2024-05-09T01:37:07.250Z,98720.78
2024-05-09T01:39:40.716Z,98724.78
2024-05-09T01:42:11.551Z,98735.22
2024-05-09T01:44:43.539Z,98725.53
2024-05-09T01:47:14.495Z,98729.56
2024-05-09T01:49:45.506Z,98743.25
2024-05-09T01:52:16.465Z,98739.25
2024-05-09T01:54:49.882Z,98738.06
2024-05-09T01:57:20.728Z,98740.47
2024-05-09T01:59:51.498Z,98733.66
2024-05-09T02:02:22.481Z,98734.88
2024-05-09T02:04:53.413Z,98733.69
2024-05-09T02:07:24.304Z,98732.06
2024-05-09T02:09:57.732Z,98735.69
2024-05-09T02:12:28.669Z,98735.66
2024-05-09T02:14:59.531Z,98736.06
2024-05-09T02:17:30.528Z,98724.84
2024-05-09T02:20:01.518Z,98735.25
2024-05-09T02:22:32.382Z,98734.03
2024-05-09T02:25:05.809Z,98739.69
2024-05-09T02:27:36.611Z,98738.06
2024-05-09T02:30:18.284Z,98741.66
2024-05-09T02:32:53.881Z,98734.84
2024-05-09T02:35:24.908Z,98724.81
2024-05-09T02:37:53.248Z,98737.22
2024-05-09T02:40:35.554Z,98737.22
2024-05-09T02:43:11.273Z,98731.56
2024-05-09T02:45:40.566Z,98731.16
2024-05-09T02:48:14.525Z,98735.09
2024-05-09T02:50:44.362Z,98727.84
2024-05-09T02:53:16.040Z,98731.06
2024-05-09T02:55:46.987Z,98731.41
2024-05-09T02:58:18.131Z,98734.97
2024-05-09T03:00:46.409Z,98726.56
2024-05-09T03:03:17.588Z,98724.56
2024-05-09T03:05:46.503Z,98738.97
2024-05-09T03:08:17.587Z,98735.06
2024-05-09T03:10:48.559Z,98735.06
2024-05-09T03:13:19.480Z,98743.06
2024-05-09T03:15:47.675Z,98737.84
2024-05-09T03:18:18.620Z,98733.38
2024-05-09T03:20:46.946Z,98729.31
2024-05-09T03:23:17.897Z,98731.34
2024-05-09T03:25:48.773Z,98734.19
2024-05-09T03:28:19.587Z,98730.53
2024-05-09T03:30:47.785Z,98726.91
2024-05-09T03:33:20.452Z,98725.28
2024-05-09T03:35:49.700Z,98725.28
2024-05-09T03:38:20.652Z,98726.06
2024-05-09T03:40:54.454Z,98726.00
2024-05-09T03:43:25.287Z,98726.81
2024-05-09T03:45:56.115Z,98724.84
2024-05-09T03:48:24.657Z,98726.38
2024-05-09T03:50:55.677Z,98729.28
2024-05-09T03:53:25.301Z,98724.47
2024-05-09T03:55:59.447Z,98736.44
2024-05-09T03:58:27.708Z,98722.84
2024-05-09T04:00:58.730Z,98732.44
2024-05-09T04:03:27.288Z,98726.84
2024-05-09T04:05:59.020Z,98734.56
2024-05-09T04:08:27.214Z,98730.94
2024-05-09T04:11:00.818Z,98726.16
2024-05-09T04:13:29.031Z,98731.34
2024-05-09T04:15:59.867Z,98731.75
2024-05-09T04:18:28.195Z,98738.97
2024-05-09T04:20:59.670Z,98737.34
2024-05-09T04:23:28.135Z,98735.00
2024-05-09T04:26:04.378Z,98744.66
2024-05-09T04:28:32.614Z,98747.91
2024-05-09T04:31:03.570Z,98743.13
2024-05-09T04:33:31.895Z,98749.59
2024-05-09T04:36:03.007Z,98756.44
2024-05-09T04:38:31.171Z,98759.16
2024-05-09T04:41:04.697Z,98759.94
2024-05-09T04:43:35.210Z,98760.75
2024-05-09T04:46:06.080Z,98765.13
2024-05-09T04:48:34.397Z,98771.63
2024-05-09T04:51:05.875Z,98777.72
2024-05-09T04:53:34.299Z,98775.31
2024-05-09T04:56:09.488Z,98779.34
2024-05-09T04:58:37.886Z,98783.38
2024-05-09T05:01:08.733Z,98778.19
2024-05-09T05:03:37.129Z,98783.38
2024-05-09T05:06:08.833Z,98782.63
2024-05-09T05:08:37.852Z,98787.41
2024-05-09T05:11:11.554Z,98792.22
2024-05-09T05:13:41.515Z,98791.41
2024-05-09T05:16:12.769Z,98799.84
2024-05-09T05:18:41.099Z,98797.44
2024-05-09T05:21:12.095Z,98803.44
2024-05-09T05:23:41.083Z,98812.25
2024-05-09T05:26:20.300Z,98809.81
2024-05-09T05:28:48.643Z,98813.44
2024-05-09T05:31:19.934Z,98811.00
2024-05-09T05:33:49.267Z,98806.16
2024-05-09T05:36:20.155Z,98810.56
2024-05-09T05:38:48.495Z,98810.50
2024-05-09T05:41:22.059Z,98802.47
2024-05-09T05:43:50.310Z,98806.47
2024-05-09T05:46:21.217Z,98809.59
2024-05-09T05:48:49.619Z,98814.38
2024-05-09T05:51:20.622Z,98818.31
2024-05-09T05:53:48.962Z,98821.50
2024-05-09T05:56:22.499Z,98823.06
2024-05-09T05:58:51.536Z,98821.31
2024-05-09T06:01:22.510Z,98815.56
2024-05-09T06:03:50.806Z,98821.00
2024-05-09T06:06:21.710Z,98824.53
2024-05-09T06:08:49.985Z,98824.00
2024-05-09T06:11:23.614Z,98817.41
2024-05-09T06:13:51.939Z,98828.56
2024-05-09T06:16:23.768Z,98826.41
2024-05-09T06:18:52.173Z,98827.84
2024-05-09T06:21:23.309Z,98835.31
2024-05-09T06:23:51.661Z,98833.53
2024-05-09T06:26:25.370Z,98831.72
2024-05-09T06:28:53.632Z,98834.44
2024-05-09T06:31:24.490Z,98833.53
2024-05-09T06:33:52.821Z,98839.31
2024-05-09T06:36:23.785Z,98838.94
2024-05-09T06:38:52.060Z,98846.06
2024-05-09T06:41:25.627Z,98841.59
2024-05-09T06:43:53.842Z,98842.16
2024-05-09T06:46:25.541Z,98845.88
2024-05-09T06:48:54.179Z,98848.63
2024-05-09T06:51:25.872Z,98854.16
2024-05-09T06:53:55.111Z,98846.16
2024-05-09T06:56:28.593Z,98845.72
2024-05-09T06:58:56.971Z,98852.41
2024-05-09T07:01:27.932Z,98844.47
2024-05-09T07:03:56.273Z,98843.94
2024-05-09T07:06:27.341Z,98847.06
2024-05-09T07:08:55.569Z,98851.13
2024-05-09T07:11:29.147Z,98857.41
2024-05-09T07:13:57.494Z,98848.63
2024-05-09T07:16:28.353Z,98860.50
2024-05-09T07:18:56.692Z,98851.25
2024-05-09T07:21:27.674Z,98854.56
2024-05-09T07:23:55.912Z,98848.19
2024-05-09T07:26:29.428Z,98853.94
2024-05-09T07:28:57.661Z,98857.16
2024-05-09T07:31:30.747Z,98850.94
2024-05-09T07:33:59.643Z,98858.69
2024-05-09T07:36:30.526Z,98863.81
2024-05-09T07:38:58.867Z,98861.28
2024-05-09T07:41:32.524Z,98853.44
2024-05-09T07:55:02.155Z,98855.63
2024-05-09T07:57:32.964Z,98855.78
2024-05-09T08:00:04.508Z,98855.38
2024-05-09T08:02:33.073Z,98863.50
2024-05-09T08:05:03.984Z,98861.25
2024-05-09T08:07:34.836Z,98850.28
2024-05-09T08:10:08.103Z,98854.00
2024-05-09T08:13:55.082Z,98858.97
2024-05-09T08:21:01.980Z,98857.59
2024-05-09T08:23:30.213Z,98859.66
2024-05-09T08:26:00.939Z,98852.91
2024-05-09T08:28:29.109Z,98855.66
2024-05-09T08:31:02.394Z,98858.66
2024-05-09T08:33:33.162Z,98855.91
2024-05-09T08:36:07.113Z,98862.97
2024-05-09T08:38:35.211Z,98856.16
2024-05-09T08:41:07.248Z,98867.97
2024-05-09T08:43:39.037Z,98865.22
2024-05-09T08:46:13.130Z,98859.53
2024-05-09T08:48:44.153Z,98859.53
2024-05-09T08:51:19.795Z,98866.47
2024-05-09T08:54:07.696Z,98857.69
2024-05-09T09:48:47.131Z,98842.84
2024-05-09T09:51:16.016Z,98844.19
2024-05-09T09:53:50.242Z,98845.50
2024-05-09T09:56:20.245Z,98825.78
2024-05-09T09:58:51.908Z,98832.31
2024-05-09T10:01:21.631Z,98828.19
2024-05-09T10:03:56.490Z,98830.44
2024-05-09T10:06:25.415Z,98832.09
2024-05-09T10:08:57.140Z,98824.47
2024-05-09T10:11:29.754Z,98840.97
2024-05-09T10:14:00.719Z,98830.81
2024-05-09T10:16:31.547Z,98822.06
2024-05-09T10:19:05.321Z,98828.50
2024-05-09T10:21:33.584Z,98827.97
2024-05-09T10:24:07.110Z,98818.75
2024-05-09T10:26:37.701Z,98827.94
2024-05-09T10:29:16.033Z,98824.22
2024-05-09T10:31:46.399Z,98826.28
2024-05-09T10:34:25.034Z,98827.09
2024-05-09T10:36:55.115Z,98831.69
2024-05-09T10:39:28.117Z,98817.75
2024-05-09T10:41:56.401Z,98820.94
2024-05-09T10:44:27.303Z,98824.44
2024-05-09T10:46:56.321Z,98814.03
2024-05-09T10:49:29.830Z,98815.06
2024-05-09T10:51:57.944Z,98817.56
2024-05-09T10:54:38.788Z,98818.44
2024-05-09T10:57:07.517Z,98818.28
2024-05-09T10:59:39.764Z,98809.56
2024-05-09T11:02:08.632Z,98813.38
2024-05-09T11:04:44.548Z,98811.13
2024-05-09T11:07:14.867Z,98813.75
2024-05-09T11:09:46.499Z,98806.50
2024-05-09T11:12:14.842Z,98811.03
2024-05-09T11:14:56.041Z,98800.06
2024-05-09T11:17:24.909Z,98802.22
2024-05-09T11:19:58.372Z,98800.53
2024-05-09T11:22:32.596Z,98794.25
2024-05-09T11:25:04.222Z,98792.94
2024-05-09T11:27:32.401Z,98788.50
2024-05-09T11:30:04.328Z,98787.50
2024-05-09T11:32:33.108Z,98781.19
2024-05-09T11:35:07.624Z,98784.09
2024-05-09T11:37:39.986Z,98795.25
2024-05-09T11:40:21.175Z,98789.72
2024-05-09T11:42:54.339Z,98784.91
2024-05-09T11:45:25.410Z,98790.25
2024-05-09T11:47:53.899Z,98788.47
2024-05-09T11:50:33.092Z,98784.88
2024-05-09T11:53:04.056Z,98770.34
2024-05-09T11:55:36.484Z,98781.78
2024-05-09T11:58:05.561Z,98771.53
2024-05-09T12:00:37.714Z,98774.22
2024-05-09T12:03:06.651Z,98764.75
2024-05-09T12:05:40.338Z,98766.84
2024-05-09T12:08:08.635Z,98765.22
2024-05-09T12:10:39.838Z,98758.25
2024-05-09T12:13:08.169Z,98749.38
2024-05-09T12:15:39.624Z,98738.75
2024-05-09T12:18:08.466Z,98735.47
2024-05-09T12:20:42.097Z,98743.66
2024-05-09T12:23:10.766Z,98732.94
2024-05-09T12:25:42.197Z,98747.03
2024-05-09T12:28:10.483Z,98738.97
2024-05-09T12:30:41.941Z,98730.88
2024-05-09T12:33:12.372Z,98747.13
2024-05-09T12:35:49.165Z,98750.25
2024-05-09T12:38:18.869Z,98744.28
2024-05-09T12:40:49.761Z,98730.44
2024-05-09T12:43:18.035Z,98739.44
2024-05-09T12:45:48.919Z,98739.00
2024-05-09T12:48:17.292Z,98742.84
2024-05-09T12:50:51.742Z,98742.72
2024-05-09T12:53:19.951Z,98736.16
2024-05-09T12:55:56.834Z,98741.94
2024-05-09T12:58:28.487Z,98735.97
2024-05-09T13:00:59.573Z,98746.59
2024-05-09T13:03:28.116Z,98734.78
2024-05-09T13:06:01.860Z,98723.94
2024-05-09T13:08:30.112Z,98715.28
2024-05-09T13:11:01.525Z,98714.28
2024-05-09T13:13:29.669Z,98708.66
2024-05-09T13:16:00.723Z,98704.00
2024-05-09T13:18:29.053Z,98706.47
2024-05-09T13:21:02.576Z,98711.31
2024-05-09T13:23:30.919Z,98695.47
2024-05-09T13:26:01.798Z,98695.16
2024-05-09T13:28:32.338Z,98699.94
2024-05-09T13:31:04.411Z,98695.00
2024-05-09T13:33:33.784Z,98682.56
2024-05-09T13:36:08.709Z,98685.75
2024-05-09T13:38:36.861Z,98676.81
2024-05-09T13:41:08.544Z,98677.28
2024-05-09T13:43:36.659Z,98681.09
2024-05-09T13:46:07.910Z,98672.97
2024-05-09T13:48:36.335Z,98672.91
2024-05-09T13:51:09.912Z,98668.63
2024-05-09T13:53:37.997Z,98674.41
2024-05-09T13:56:09.338Z,98672.13
2024-05-09T13:58:37.560Z,98674.13
2024-05-09T14:01:08.484Z,98668.00
2024-05-09T14:03:36.886Z,98664.94
2024-05-09T14:06:12.825Z,98673.09
2024-05-09T14:08:41.612Z,98684.72
2024-05-09T14:11:12.489Z,98686.25
2024-05-09T14:13:40.770Z,98682.13
2024-05-09T14:16:11.887Z,98673.56
2024-05-09T14:18:41.038Z,98663.84
2024-05-09T14:21:14.452Z,98665.59
2024-05-09T14:23:42.589Z,98661.09
2024-05-09T14:26:14.167Z,98668.47
2024-05-09T14:28:42.540Z,98669.09
2024-05-09T14:31:15.346Z,98668.34
2024-05-09T14:33:44.431Z,98664.25
2024-05-09T14:36:21.641Z,98664.06
2024-05-09T14:38:59.322Z,98656.66
2024-05-09T14:41:30.050Z,98656.88
2024-05-09T14:43:58.172Z,98662.03
2024-05-09T14:46:29.154Z,98652.38
2024-05-09T14:48:59.568Z,98650.22
2024-05-09T14:51:35.772Z,98653.38
2024-05-09T14:54:04.184Z,98658.50
2024-05-09T14:56:34.982Z,98651.72
2024-05-09T14:59:03.464Z,98647.84
2024-05-09T15:02:12.501Z,98649.41
2024-05-09T15:04:41.011Z,98649.50
2024-05-09T15:07:14.531Z,98646.06
2024-05-09T15:09:43.136Z,98651.84
2024-05-09T15:12:13.859Z,98638.09
2024-05-09T15:14:42.301Z,98644.81
2024-05-09T15:17:13.072Z,98641.28
2024-05-09T15:19:41.474Z,98637.16
2024-05-09T15:22:16.542Z,98631.75
2024-05-09T15:24:45.303Z,98626.09
2024-05-09T15:27:16.227Z,98623.44
2024-05-09T15:29:45.676Z,98620.53
2024-05-09T15:32:17.621Z,98624.47
2024-05-09T15:34:46.252Z,98622.47
2024-05-09T15:37:19.955Z,98608.81
2024-05-09T15:39:48.579Z,98611.03
2024-05-09T15:42:19.344Z,98610.13
2024-05-09T15:44:52.953Z,98617.59
2024-05-09T15:47:23.819Z,98623.53
2024-05-09T15:49:52.130Z,98614.47
2024-05-09T15:52:25.609Z,98611.03
2024-05-09T15:54:54.046Z,98614.88
2024-05-09T15:57:25.032Z,98609.22
2024-05-09T15:59:53.263Z,98610.06
2024-05-09T16:02:24.591Z,98596.69
2024-05-09T16:04:53.196Z,98603.03
2024-05-09T16:07:26.730Z,98599.16
2024-05-09T16:09:54.886Z,98606.41
2024-05-09T16:12:25.656Z,98603.88
2024-05-09T16:14:53.775Z,98608.81
2024-05-09T16:17:24.640Z,98607.66
2024-05-09T16:19:53.021Z,98594.78
2024-05-09T16:22:26.555Z,98605.47
2024-05-09T16:24:54.892Z,98599.16
2024-05-09T16:27:25.836Z,98591.81
2024-05-09T16:29:55.901Z,98584.16
2024-05-09T16:32:27.104Z,98587.81
2024-05-09T16:34:55.467Z,98591.72
2024-05-09T16:37:29.765Z,98596.69
2024-05-09T16:39:58.467Z,98594.03
2024-05-09T16:42:29.336Z,98594.09
2024-05-09T16:44:57.470Z,98607.53
2024-05-09T16:47:28.497Z,98592.66
2024-05-09T16:49:56.688Z,98594.84
2024-05-09T16:52:30.202Z,98594.38
2024-05-09T16:54:58.348Z,98600.25
2024-05-09T16:57:29.210Z,98600.25
2024-05-09T16:59:57.531Z,98599.34
2024-05-09T17:02:28.886Z,98604.22
2024-05-09T17:04:57.290Z,98598.84
2024-05-09T17:07:30.922Z,98605.75
2024-05-09T17:09:59.190Z,98595.13
2024-05-09T17:12:30.233Z,98603.16
2024-05-09T17:15:01.105Z,98597.97
2024-05-09T17:17:29.476Z,98594.78
2024-05-09T17:20:00.548Z,98586.94
2024-05-09T17:22:32.229Z,98585.78
2024-05-09T17:25:03.182Z,98581.09
2024-05-09T17:27:31.830Z,98582.28
2024-05-09T17:30:03.539Z,98581.38
2024-05-09T17:32:32.914Z,98578.91
2024-05-09T17:35:03.855Z,98571.59
2024-05-09T17:37:35.831Z,98582.94
2024-05-09T17:40:14.388Z,98577.31
2024-05-09T17:42:47.872Z,98576.97
2024-05-09T17:45:16.701Z,98571.34
2024-05-09T17:47:47.833Z,98580.50
2024-05-09T17:50:23.784Z,98587.88
2024-05-09T17:53:01.847Z,98579.53
2024-05-09T17:55:30.312Z,98578.84
2024-05-09T17:58:01.639Z,98575.22
2024-05-09T18:00:37.594Z,98584.97
2024-05-09T18:03:13.610Z,98583.88
2024-05-09T18:05:43.983Z,98593.66
2024-05-09T18:08:18.260Z,98585.53
2024-05-09T18:10:46.464Z,98596.06
2024-05-09T18:13:17.330Z,98602.59
2024-05-09T18:15:45.584Z,98604.03
2024-05-09T18:18:17.562Z,98606.09
2024-05-09T18:20:46.517Z,98608.16
2024-05-09T18:23:20.279Z,98610.84
2024-05-09T18:25:48.574Z,98613.03
2024-05-09T18:28:19.834Z,98609.72
2024-05-09T18:30:48.043Z,98611.38
2024-05-09T18:33:19.447Z,98618.44
2024-05-09T18:35:48.856Z,98609.16
2024-05-09T18:38:25.620Z,98616.56
2024-05-09T18:40:53.895Z,98618.09
2024-05-09T18:43:31.039Z,98619.78
2024-05-09T18:46:04.625Z,98631.13
2024-05-09T18:48:35.834Z,98634.19
2024-05-09T18:51:05.738Z,98629.78
2024-05-09T18:53:39.634Z,98638.19
2024-05-09T18:56:08.880Z,98635.66
2024-05-09T18:58:41.047Z,98638.06
2024-05-09T19:01:09.486Z,98638.31
2024-05-09T19:03:40.839Z,98638.09
2024-05-09T19:06:09.411Z,98652.06
2024-05-09T19:08:42.926Z,98649.31
2024-05-09T19:11:11.465Z,98645.41
2024-05-09T19:13:42.255Z,98655.56
2024-05-09T19:16:10.793Z,98663.03
2024-05-09T19:18:41.915Z,98668.97
2024-05-09T19:21:10.495Z,98669.91
2024-05-09T19:23:50.548Z,98670.13
2024-05-09T19:26:20.366Z,98671.72
2024-05-09T19:28:51.136Z,98671.63
2024-05-09T19:31:19.547Z,98672.75
2024-05-09T19:33:50.617Z,98680.22
2024-05-09T19:36:19.573Z,98685.28
2024-05-09T19:38:53.465Z,98694.47
2024-05-09T19:41:22.983Z,98692.34
2024-05-09T19:43:54.000Z,98699.63
2024-05-09T19:46:23.853Z,98708.84
2024-05-09T19:48:57.347Z,98712.13
2024-05-09T19:51:25.938Z,98703.44
2024-05-09T19:53:59.594Z,98713.00
2024-05-09T19:56:27.792Z,98719.84
2024-05-09T19:58:58.852Z,98716.81
2024-05-09T20:01:27.379Z,98720.88
2024-05-09T20:03:59.342Z,98721.50
2024-05-09T20:06:29.583Z,98725.59
2024-05-09T20:09:04.078Z,98721.84
2024-05-09T20:11:33.304Z,98728.50
2024-05-09T20:14:04.238Z,98727.75
2024-05-09T20:16:32.539Z,98729.03
2024-05-09T20:19:09.302Z,98730.34
2024-05-09T20:21:42.359Z,98732.16
2024-05-09T20:24:16.040Z,98731.81
2024-05-09T20:26:44.362Z,98728.25
2024-05-09T20:29:15.200Z,98733.59
2024-05-09T20:31:43.461Z,98734.78
2024-05-09T20:34:15.506Z,98738.41
2024-05-09T20:36:44.062Z,98740.50
2024-05-09T20:39:17.448Z,98740.31
2024-05-09T20:41:45.558Z,98741.47
2024-05-09T20:44:17.014Z,98742.69
2024-05-09T20:46:45.517Z,98737.06
2024-05-09T20:49:17.091Z,98746.75
2024-05-09T20:51:45.567Z,98737.84
2024-05-09T20:54:19.034Z,98746.97
2024-05-09T20:56:47.122Z,98741.84
2024-05-09T20:59:18.078Z,98740.69
2024-05-09T21:01:49.220Z,98755.97
2024-05-09T21:04:20.778Z,98746.31
2024-05-09T21:06:49.172Z,98745.50
2024-05-09T21:09:25.788Z,98739.09
2024-05-09T21:11:54.093Z,98743.13
2024-05-09T21:14:25.018Z,98752.31
2024-05-09T21:16:53.237Z,98747.06
2024-05-09T21:19:24.375Z,98750.72
2024-05-09T21:21:53.461Z,98749.13
2024-05-09T21:24:27.125Z,98756.78
2024-05-09T21:26:55.830Z,98758.44
2024-05-09T21:29:26.574Z,98753.19
2024-05-09T21:31:54.704Z,98749.56
2024-05-09T21:34:25.571Z,98756.00
2024-05-09T21:36:53.725Z,98758.47
2024-05-09T21:39:28.361Z,98761.31
2024-05-09T21:42:01.761Z,98764.16
2024-05-09T21:44:32.890Z,98769.34
2024-05-09T21:47:01.065Z,98757.34
2024-05-09T21:49:31.964Z,98773.78
2024-05-09T21:52:00.166Z,98768.19
2024-05-09T21:54:33.728Z,98774.56
2024-05-09T21:57:02.357Z,98768.16
2024-05-09T21:59:33.522Z,98776.19
2024-05-09T22:02:02.067Z,98761.31
2024-05-09T22:04:33.047Z,98778.16
2024-05-09T22:07:01.412Z,98771.34
2024-05-09T22:09:35.021Z,98768.16
2024-05-09T22:12:04.740Z,98765.75
2024-05-09T22:14:35.552Z,98776.97
2024-05-09T22:17:04.156Z,98768.13
2024-05-09T22:19:35.132Z,98771.72
2024-05-09T22:22:03.678Z,98772.97
2024-05-09T22:24:37.275Z,98775.34
2024-05-09T22:27:06.216Z,98778.97
2024-05-09T22:29:37.020Z,98779.34
2024-05-09T22:32:05.955Z,98779.38
2024-05-09T22:34:36.822Z,98773.75
2024-05-09T22:37:05.137Z,98772.91
2024-05-09T22:39:38.520Z,98778.47
2024-05-09T22:42:06.684Z,98782.47
2024-05-09T22:44:37.360Z,98776.03
2024-05-09T22:47:05.537Z,98779.97
2024-05-09T22:49:36.316Z,98767.28
2024-05-09T22:52:05.186Z,98772.09
2024-05-09T22:54:38.732Z,98772.88
2024-05-09T22:57:06.845Z,98775.25
2024-05-09T22:59:37.711Z,98767.28
2024-05-09T23:02:06.120Z,98772.44
2024-05-09T23:04:37.065Z,98764.72
2024-05-09T23:07:05.300Z,98757.94
2024-05-09T23:09:38.945Z,98767.97
2024-05-09T23:12:07.822Z,98765.56
2024-05-09T23:14:38.614Z,98767.22
2024-05-09T23:17:06.786Z,98768.00
2024-05-09T23:19:37.696Z,98773.94
2024-05-09T23:22:06.137Z,98760.72
2024-05-09T23:24:41.827Z,98765.44
2024-05-09T23:27:09.970Z,98767.81
2024-05-09T23:29:40.723Z,98753.38
2024-05-09T23:32:11.535Z,98759.84
2024-05-09T23:34:39.836Z,98753.41
2024-05-09T23:37:10.924Z,98754.94
2024-05-09T23:39:41.778Z,98757.22
2024-05-09T23:42:12.759Z,98765.16
2024-05-09T23:44:41.097Z,98751.41
2024-05-09T23:47:11.983Z,98752.13
2024-05-09T23:49:40.287Z,98749.25
2024-05-09T23:52:11.263Z,98758.03
2024-05-09T23:54:42.387Z,98750.41
2024-05-09T23:57:13.198Z,98752.44
2024-05-09T23:59:41.922Z,98745.59
